RV Helmer Hanssen — LAHV — position and weather

sailwx.info

Track history (hours):
 
Tides and Currents Weather Stations Pressure Air Temp Water Temp Dewpoint Dewpoint Depression Visibility Wind Speed Wind Dir Waves Ship Positions

Oceanographic research ship RV Helmer Hanssen (Norway)

ex Jan Mayen.

Ship's website: http://uit.no/bfe

Detailed information on ship capabilities available from University of Delaware's Ocean Information Center and ARCUS's ALIAS (Arctic Logistics Information and Support) project.

Last reported at 2018-May-20 13:30 UTC. Time now 2018-May-20 13:53 UTC.
Position N 69°47' E 019°15'.

Length 64 m; beam 13 m.

Type: Other ship. MMSI: 257471500.

Date/timePositionNaut miles runAvg speedWind from/ knotsBaromVisibWave heightAir tempDewpointWater temp
2018-May-20 13:30N 69°47' E 019°15'510.5
2018-May-20 13:00N 69°49' E 019°29'610.8
2018-May-20 12:29N 69°51' E 019°44'611.0
2018-May-20 11:58N 69°54' E 019°57'510.8
2018-May-20 11:29N 69°58' E 020°08'510.6
2018-May-20 11:00N 69°60' E 020°22'510.7
2018-May-20 10:30N 70°01' E 020°37'611.4
2018-May-20 10:00N 70°04' E 020°53'611.1
2018-May-20 09:30N 70°08' E 021°01'611.0
2018-May-20 08:59N 70°13' E 021°08'510.9
2018-May-20 08:30N 70°17' E 021°21'611.1
2018-May-20 08:00N 70°21' E 021°32'510.7
2018-May-20 07:30N 70°24' E 021°44'510.6
2018-May-20 07:00N 70°25' E 021°60'610.9
2018-May-20 06:30N 70°27' E 022°16'611.1
2018-May-20 05:59N 70°28' E 022°32'510.8
2018-May-20 05:30N 70°30' E 022°47'510.2
2018-May-20 05:00N 70°32' E 023°00'510.1
2018-May-20 04:29N 70°36' E 023°10'510.3
2018-May-20 04:00N 70°40' E 023°19'510.5
2018-May-20 03:30N 70°44' E 023°31'510.6
2018-May-20 03:00N 70°47' E 023°42'510.2
2018-May-20 02:30N 70°51' E 023°55'5 9.8
2018-May-20 02:00N 70°54' E 024°06'5 9.9
2018-May-20 01:30N 70°57' E 024°18'510.7
2018-May-20 01:00N 71°02' E 024°23'510.7
2018-May-20 00:30N 71°07' E 024°28'510.1
2018-May-19 23:59N 71°12' E 024°31'5 9.6
2018-May-19 23:30N 71°17' E 024°33'4 7.2
2018-May-19 23:00N 71°20' E 024°36'5 9.3
2018-May-19 22:30N 71°25' E 024°38'  
Track history (hours):
 
Tides and Currents Weather Stations Pressure Air Temp Water Temp Dewpoint Dewpoint Depression Visibility Wind Speed Wind Dir Waves Ship Positions

Oceanographic research ship RV Helmer Hanssen (Norway)

ex Jan Mayen.

Ship's website: http://uit.no/bfe

Detailed information on ship capabilities available from University of Delaware's Ocean Information Center and ARCUS's ALIAS (Arctic Logistics Information and Support) project.

Last reported at 2018-May-20 13:30 UTC. Time now 2018-May-20 13:53 UTC.
Position N 69°47' E 019°15'.

Length 64 m; beam 13 m.

Type: Other ship. MMSI: 257471500.

Date/timePositionNaut miles runAvg speedWind from/ knotsBaromVisibWave heightAir tempDewpointWater temp
2018-May-20 13:30N 69°47' E 019°15'510.5
2018-May-20 13:00N 69°49' E 019°29'610.8
2018-May-20 12:29N 69°51' E 019°44'611.0
2018-May-20 11:58N 69°54' E 019°57'510.8
2018-May-20 11:29N 69°58' E 020°08'510.6
2018-May-20 11:00N 69°60' E 020°22'510.7
2018-May-20 10:30N 70°01' E 020°37'611.4
2018-May-20 10:00N 70°04' E 020°53'611.1
2018-May-20 09:30N 70°08' E 021°01'611.0
2018-May-20 08:59N 70°13' E 021°08'510.9
2018-May-20 08:30N 70°17' E 021°21'611.1
2018-May-20 08:00N 70°21' E 021°32'510.7
2018-May-20 07:30N 70°24' E 021°44'510.6
2018-May-20 07:00N 70°25' E 021°60'610.9
2018-May-20 06:30N 70°27' E 022°16'611.1
2018-May-20 05:59N 70°28' E 022°32'510.8
2018-May-20 05:30N 70°30' E 022°47'510.2
2018-May-20 05:00N 70°32' E 023°00'510.1
2018-May-20 04:29N 70°36' E 023°10'510.3
2018-May-20 04:00N 70°40' E 023°19'510.5
2018-May-20 03:30N 70°44' E 023°31'510.6
2018-May-20 03:00N 70°47' E 023°42'510.2
2018-May-20 02:30N 70°51' E 023°55'5 9.8
2018-May-20 02:00N 70°54' E 024°06'5 9.9
2018-May-20 01:30N 70°57' E 024°18'510.7
2018-May-20 01:00N 71°02' E 024°23'510.7
2018-May-20 00:30N 71°07' E 024°28'510.1
2018-May-19 23:59N 71°12' E 024°31'5 9.6
2018-May-19 23:30N 71°17' E 024°33'4 7.2
2018-May-19 23:00N 71°20' E 024°36'5 9.3
2018-May-19 22:30N 71°25' E 024°38'  

Dump ship's entire track history